Arkville, New York
Current Conditions -  °F | °C
As of 3:35 PM on Wednesday 26 Nov 2014 (Local Time) from KMSV Reporting Station
Overcast Overcast  
Wind Chill: -1°   Ceiling: 700
Heat Index: -1°   Visibility: 1.7mi
Dew Point: -2°   Wind: 0mph
Humidity: 93%   Direction: NA
Pressure: 29.89"   Gusts: NA
Location:  42.15°N, 74.62°W
Report Text: KMSV 262035Z AUTO 00000KT 1 3/4SM BKN007 OVC020 M01/M02 A2989 RMK AO1
Loading
Personal Weather Stations






























Interactive Weather Map New forecast layout! Learn more

10-Day Weather Forecast

Advertisements
Track Severe Weather on mobile